sensor_id;sensor_type;location;lat;lon;timestamp;P1;durP1;ratioP1;P2;durP2;ratioP2
6725;SDS011;3400;48.506;11.692;2022-11-24T00:01:10;9.10;;;6.57;;
6725;SDS011;3400;48.506;11.692;2022-11-24T00:03:37;9.20;;;6.13;;
6725;SDS011;3400;48.506;11.692;2022-11-24T00:06:13;13.10;;;7.03;;
6725;SDS011;3400;48.506;11.692;2022-11-24T00:08:40;10.13;;;6.63;;
6725;SDS011;3400;48.506;11.692;2022-11-24T00:11:09;7.27;;;6.17;;
6725;SDS011;3400;48.506;11.692;2022-11-24T00:13:36;11.87;;;6.17;;
6725;SDS011;3400;48.506;11.692;2022-11-24T00:16:14;18.83;;;6.70;;
6725;SDS011;3400;48.506;11.692;2022-11-24T00:18:41;11.43;;;7.30;;
6725;SDS011;3400;48.506;11.692;2022-11-24T00:21:08;10.33;;;6.23;;
6725;SDS011;3400;48.506;11.692;2022-11-24T00:23:35;13.87;;;7.13;;
6725;SDS011;3400;48.506;11.692;2022-11-24T00:26:03;10.30;;;6.73;;
6725;SDS011;3400;48.506;11.692;2022-11-24T00:28:30;10.37;;;6.07;;
6725;SDS011;3400;48.506;11.692;2022-11-24T00:30:57;10.07;;;6.37;;
6725;SDS011;3400;48.506;11.692;2022-11-24T00:33:24;11.17;;;6.37;;
6725;SDS011;3400;48.506;11.692;2022-11-24T00:35:54;14.63;;;6.00;;
6725;SDS011;3400;48.506;11.692;2022-11-24T00:38:21;10.87;;;6.40;;
6725;SDS011;3400;48.506;11.692;2022-11-24T00:40:48;10.30;;;5.77;;
6725;SDS011;3400;48.506;11.692;2022-11-24T00:43:14;9.00;;;5.77;;
6725;SDS011;3400;48.506;11.692;2022-11-24T00:45:41;14.57;;;6.33;;
6725;SDS011;3400;48.506;11.692;2022-11-24T00:48:08;15.40;;;6.63;;
6725;SDS011;3400;48.506;11.692;2022-11-24T00:50:34;8.13;;;5.83;;
6725;SDS011;3400;48.506;11.692;2022-11-24T00:53:01;11.27;;;5.70;;
6725;SDS011;3400;48.506;11.692;2022-11-24T00:55:28;10.43;;;4.90;;
6725;SDS011;3400;48.506;11.692;2022-11-24T00:57:55;11.67;;;5.33;;
6725;SDS011;3400;48.506;11.692;2022-11-24T01:00:21;11.07;;;6.27;;
6725;SDS011;3400;48.506;11.692;2022-11-24T01:02:48;12.67;;;5.60;;
6725;SDS011;3400;48.506;11.692;2022-11-24T01:05:15;8.63;;;4.67;;
6725;SDS011;3400;48.506;11.692;2022-11-24T01:07:41;9.43;;;4.93;;
6725;SDS011;3400;48.506;11.692;2022-11-24T01:10:08;9.33;;;4.50;;
6725;SDS011;3400;48.506;11.692;2022-11-24T01:12:35;10.43;;;5.00;;
6725;SDS011;3400;48.506;11.692;2022-11-24T01:15:02;9.20;;;4.83;;
6725;SDS011;3400;48.506;11.692;2022-11-24T01:17:28;13.53;;;5.00;;
6725;SDS011;3400;48.506;11.692;2022-11-24T01:19:55;11.97;;;4.80;;
6725;SDS011;3400;48.506;11.692;2022-11-24T01:22:22;11.07;;;5.00;;
6725;SDS011;3400;48.506;11.692;2022-11-24T01:24:51;6.40;;;4.77;;
6725;SDS011;3400;48.506;11.692;2022-11-24T01:27:17;5.23;;;4.20;;
6725;SDS011;3400;48.506;11.692;2022-11-24T01:29:44;6.07;;;4.40;;
6725;SDS011;3400;48.506;11.692;2022-11-24T01:32:11;8.17;;;4.57;;
6725;SDS011;3400;48.506;11.692;2022-11-24T01:34:37;7.43;;;4.23;;
6725;SDS011;3400;48.506;11.692;2022-11-24T01:37:04;9.30;;;4.93;;
6725;SDS011;3400;48.506;11.692;2022-11-24T01:39:31;11.00;;;4.03;;
6725;SDS011;3400;48.506;11.692;2022-11-24T01:41:59;7.07;;;3.70;;
6725;SDS011;3400;48.506;11.692;2022-11-24T01:44:27;6.37;;;4.13;;
6725;SDS011;3400;48.506;11.692;2022-11-24T01:47:23;7.47;;;3.57;;
6725;SDS011;3400;48.506;11.692;2022-11-24T01:49:54;6.97;;;3.60;;
6725;SDS011;3400;48.506;11.692;2022-11-24T01:52:26;4.60;;;3.43;;
6725;SDS011;3400;48.506;11.692;2022-11-24T01:54:55;5.57;;;3.87;;
6725;SDS011;3400;48.506;11.692;2022-11-24T01:57:25;9.87;;;3.73;;
6725;SDS011;3400;48.506;11.692;2022-11-24T01:59:54;8.27;;;3.63;;
6725;SDS011;3400;48.506;11.692;2022-11-24T02:02:23;7.93;;;4.30;;
6725;SDS011;3400;48.506;11.692;2022-11-24T02:04:52;9.43;;;4.80;;
6725;SDS011;3400;48.506;11.692;2022-11-24T02:07:19;9.50;;;4.30;;
6725;SDS011;3400;48.506;11.692;2022-11-24T02:12:13;8.13;;;4.40;;
6725;SDS011;3400;48.506;11.692;2022-11-24T02:14:40;8.83;;;3.60;;
6725;SDS011;3400;48.506;11.692;2022-11-24T02:17:07;9.17;;;3.53;;
6725;SDS011;3400;48.506;11.692;2022-11-24T02:23:02;8.03;;;4.03;;
6725;SDS011;3400;48.506;11.692;2022-11-24T02:27:41;14.93;;;4.23;;
6725;SDS011;3400;48.506;11.692;2022-11-24T02:30:09;12.30;;;4.20;;
6725;SDS011;3400;48.506;11.692;2022-11-24T02:32:37;6.27;;;3.73;;
6725;SDS011;3400;48.506;11.692;2022-11-24T02:35:05;7.57;;;4.20;;
6725;SDS011;3400;48.506;11.692;2022-11-24T02:37:32;9.80;;;4.63;;
6725;SDS011;3400;48.506;11.692;2022-11-24T02:39:58;7.30;;;4.50;;
6725;SDS011;3400;48.506;11.692;2022-11-24T02:42:25;9.90;;;4.47;;
6725;SDS011;3400;48.506;11.692;2022-11-24T02:44:54;7.50;;;3.20;;
6725;SDS011;3400;48.506;11.692;2022-11-24T02:47:22;5.97;;;3.97;;
6725;SDS011;3400;48.506;11.692;2022-11-24T02:49:49;8.97;;;3.80;;
6725;SDS011;3400;48.506;11.692;2022-11-24T02:52:15;5.30;;;3.80;;
6725;SDS011;3400;48.506;11.692;2022-11-24T02:54:42;6.40;;;3.53;;
6725;SDS011;3400;48.506;11.692;2022-11-24T02:57:09;9.33;;;3.87;;
6725;SDS011;3400;48.506;11.692;2022-11-24T02:59:36;4.90;;;3.37;;
6725;SDS011;3400;48.506;11.692;2022-11-24T03:02:03;15.77;;;4.30;;
6725;SDS011;3400;48.506;11.692;2022-11-24T03:04:30;12.43;;;4.37;;
6725;SDS011;3400;48.506;11.692;2022-11-24T03:06:56;4.30;;;3.50;;
6725;SDS011;3400;48.506;11.692;2022-11-24T03:09:23;8.37;;;3.40;;
6725;SDS011;3400;48.506;11.692;2022-11-24T03:11:50;7.87;;;3.43;;
6725;SDS011;3400;48.506;11.692;2022-11-24T03:14:16;14.80;;;3.93;;
6725;SDS011;3400;48.506;11.692;2022-11-24T03:16:43;9.27;;;3.13;;
6725;SDS011;3400;48.506;11.692;2022-11-24T03:19:10;10.00;;;3.77;;
6725;SDS011;3400;48.506;11.692;2022-11-24T03:21:36;6.07;;;3.70;;
6725;SDS011;3400;48.506;11.692;2022-11-24T03:24:03;10.67;;;4.10;;
6725;SDS011;3400;48.506;11.692;2022-11-24T03:26:32;6.50;;;3.00;;
6725;SDS011;3400;48.506;11.692;2022-11-24T03:28:59;7.30;;;3.87;;
6725;SDS011;3400;48.506;11.692;2022-11-24T03:31:25;7.63;;;3.40;;
6725;SDS011;3400;48.506;11.692;2022-11-24T03:33:52;6.67;;;3.27;;
6725;SDS011;3400;48.506;11.692;2022-11-24T03:36:19;10.20;;;3.47;;
6725;SDS011;3400;48.506;11.692;2022-11-24T03:38:46;9.40;;;3.50;;
6725;SDS011;3400;48.506;11.692;2022-11-24T03:41:12;7.07;;;3.33;;
6725;SDS011;3400;48.506;11.692;2022-11-24T03:43:39;7.80;;;3.23;;
6725;SDS011;3400;48.506;11.692;2022-11-24T03:46:06;4.23;;;3.20;;
6725;SDS011;3400;48.506;11.692;2022-11-24T03:48:33;9.67;;;3.50;;
6725;SDS011;3400;48.506;11.692;2022-11-24T03:51:00;5.90;;;2.97;;
6725;SDS011;3400;48.506;11.692;2022-11-24T03:53:28;5.53;;;3.10;;
6725;SDS011;3400;48.506;11.692;2022-11-24T03:55:56;7.17;;;3.10;;
6725;SDS011;3400;48.506;11.692;2022-11-24T03:58:23;4.20;;;2.80;;
6725;SDS011;3400;48.506;11.692;2022-11-24T04:00:50;5.00;;;2.77;;
6725;SDS011;3400;48.506;11.692;2022-11-24T04:03:18;6.10;;;2.80;;
6725;SDS011;3400;48.506;11.692;2022-11-24T04:05:45;9.07;;;2.70;;
6725;SDS011;3400;48.506;11.692;2022-11-24T04:08:12;6.23;;;2.57;;
6725;SDS011;3400;48.506;11.692;2022-11-24T04:10:39;5.80;;;2.60;;
6725;SDS011;3400;48.506;11.692;2022-11-24T04:13:10;4.70;;;2.23;;
6725;SDS011;3400;48.506;11.692;2022-11-24T04:15:38;6.53;;;2.33;;
6725;SDS011;3400;48.506;11.692;2022-11-24T04:18:05;7.90;;;2.60;;
6725;SDS011;3400;48.506;11.692;2022-11-24T04:20:32;5.23;;;2.20;;
6725;SDS011;3400;48.506;11.692;2022-11-24T04:22:59;5.20;;;2.10;;
6725;SDS011;3400;48.506;11.692;2022-11-24T04:25:25;9.03;;;2.43;;
6725;SDS011;3400;48.506;11.692;2022-11-24T04:27:52;4.77;;;2.30;;
6725;SDS011;3400;48.506;11.692;2022-11-24T04:30:20;7.17;;;2.40;;
6725;SDS011;3400;48.506;11.692;2022-11-24T04:32:47;8.93;;;2.03;;
6725;SDS011;3400;48.506;11.692;2022-11-24T04:35:14;4.87;;;2.20;;
6725;SDS011;3400;48.506;11.692;2022-11-24T04:37:40;4.70;;;2.07;;
6725;SDS011;3400;48.506;11.692;2022-11-24T04:40:08;5.37;;;2.20;;
6725;SDS011;3400;48.506;11.692;2022-11-24T04:42:35;4.30;;;2.43;;
6725;SDS011;3400;48.506;11.692;2022-11-24T04:45:02;3.07;;;2.10;;
6725;SDS011;3400;48.506;11.692;2022-11-24T04:47:29;5.37;;;2.47;;
6725;SDS011;3400;48.506;11.692;2022-11-24T04:49:56;7.07;;;2.70;;
6725;SDS011;3400;48.506;11.692;2022-11-24T04:52:23;6.37;;;1.90;;
6725;SDS011;3400;48.506;11.692;2022-11-24T04:54:50;5.13;;;2.00;;
6725;SDS011;3400;48.506;11.692;2022-11-24T04:57:21;4.77;;;1.80;;
6725;SDS011;3400;48.506;11.692;2022-11-24T04:59:48;6.40;;;2.17;;
6725;SDS011;3400;48.506;11.692;2022-11-24T05:02:15;6.23;;;2.20;;
6725;SDS011;3400;48.506;11.692;2022-11-24T05:04:42;3.87;;;1.83;;
6725;SDS011;3400;48.506;11.692;2022-11-24T05:07:12;11.67;;;2.13;;
6725;SDS011;3400;48.506;11.692;2022-11-24T05:09:39;6.80;;;2.20;;
6725;SDS011;3400;48.506;11.692;2022-11-24T05:12:25;2.60;;;1.73;;
6725;SDS011;3400;48.506;11.692;2022-11-24T05:14:56;5.20;;;2.27;;
6725;SDS011;3400;48.506;11.692;2022-11-24T05:17:27;3.67;;;2.47;;
6725;SDS011;3400;48.506;11.692;2022-11-24T05:19:54;5.90;;;1.90;;
6725;SDS011;3400;48.506;11.692;2022-11-24T05:22:20;2.50;;;1.73;;
6725;SDS011;3400;48.506;11.692;2022-11-24T05:24:47;5.27;;;1.60;;
6725;SDS011;3400;48.506;11.692;2022-11-24T05:27:14;3.13;;;1.73;;
6725;SDS011;3400;48.506;11.692;2022-11-24T05:29:40;4.40;;;1.70;;
6725;SDS011;3400;48.506;11.692;2022-11-24T05:32:08;4.53;;;1.93;;
6725;SDS011;3400;48.506;11.692;2022-11-24T05:34:35;2.33;;;1.57;;
6725;SDS011;3400;48.506;11.692;2022-11-24T05:37:02;3.50;;;1.53;;
6725;SDS011;3400;48.506;11.692;2022-11-24T05:39:33;6.97;;;1.80;;
6725;SDS011;3400;48.506;11.692;2022-11-24T05:42:01;5.33;;;2.17;;
6725;SDS011;3400;48.506;11.692;2022-11-24T05:44:46;6.20;;;1.77;;
6725;SDS011;3400;48.506;11.692;2022-11-24T05:47:13;2.67;;;1.50;;
6725;SDS011;3400;48.506;11.692;2022-11-24T05:49:39;4.17;;;1.43;;
6725;SDS011;3400;48.506;11.692;2022-11-24T05:52:06;3.27;;;1.87;;
6725;SDS011;3400;48.506;11.692;2022-11-24T05:54:33;4.63;;;1.57;;
6725;SDS011;3400;48.506;11.692;2022-11-24T05:57:00;3.17;;;1.53;;
6725;SDS011;3400;48.506;11.692;2022-11-24T05:59:26;3.83;;;1.97;;
6725;SDS011;3400;48.506;11.692;2022-11-24T06:01:53;5.77;;;1.53;;
6725;SDS011;3400;48.506;11.692;2022-11-24T06:04:20;8.27;;;1.57;;
6725;SDS011;3400;48.506;11.692;2022-11-24T06:06:47;4.70;;;2.00;;
6725;SDS011;3400;48.506;11.692;2022-11-24T06:09:13;3.40;;;1.60;;
6725;SDS011;3400;48.506;11.692;2022-11-24T06:11:40;2.40;;;1.40;;
6725;SDS011;3400;48.506;11.692;2022-11-24T06:14:08;5.97;;;1.90;;
6725;SDS011;3400;48.506;11.692;2022-11-24T06:16:35;4.87;;;1.77;;
6725;SDS011;3400;48.506;11.692;2022-11-24T06:19:01;8.97;;;2.30;;
6725;SDS011;3400;48.506;11.692;2022-11-24T06:21:28;9.07;;;2.43;;
6725;SDS011;3400;48.506;11.692;2022-11-24T06:23:56;5.97;;;1.80;;
6725;SDS011;3400;48.506;11.692;2022-11-24T06:26:23;6.37;;;1.77;;
6725;SDS011;3400;48.506;11.692;2022-11-24T06:28:50;7.50;;;3.05;;
6725;SDS011;3400;48.506;11.692;2022-11-24T06:31:16;5.73;;;2.47;;
6725;SDS011;3400;48.506;11.692;2022-11-24T06:33:43;8.53;;;2.63;;
6725;SDS011;3400;48.506;11.692;2022-11-24T06:36:11;5.43;;;2.30;;
6725;SDS011;3400;48.506;11.692;2022-11-24T06:38:38;10.87;;;2.37;;
6725;SDS011;3400;48.506;11.692;2022-11-24T06:41:06;4.30;;;2.33;;
6725;SDS011;3400;48.506;11.692;2022-11-24T06:43:33;8.83;;;2.63;;
6725;SDS011;3400;48.506;11.692;2022-11-24T06:46:00;7.23;;;2.67;;
6725;SDS011;3400;48.506;11.692;2022-11-24T06:48:27;12.77;;;2.80;;
6725;SDS011;3400;48.506;11.692;2022-11-24T06:50:57;10.77;;;2.53;;
6725;SDS011;3400;48.506;11.692;2022-11-24T06:53:24;37.77;;;24.67;;
6725;SDS011;3400;48.506;11.692;2022-11-24T06:55:51;15.27;;;3.67;;
6725;SDS011;3400;48.506;11.692;2022-11-24T06:58:18;12.17;;;3.27;;
6725;SDS011;3400;48.506;11.692;2022-11-24T07:00:45;9.63;;;3.10;;
6725;SDS011;3400;48.506;11.692;2022-11-24T07:03:13;8.33;;;2.77;;
6725;SDS011;3400;48.506;11.692;2022-11-24T07:05:41;8.77;;;2.23;;
6725;SDS011;3400;48.506;11.692;2022-11-24T07:08:08;7.43;;;2.57;;
6725;SDS011;3400;48.506;11.692;2022-11-24T07:10:35;6.10;;;2.47;;
6725;SDS011;3400;48.506;11.692;2022-11-24T07:13:02;11.97;;;3.10;;
6725;SDS011;3400;48.506;11.692;2022-11-24T07:15:29;7.60;;;3.37;;
6725;SDS011;3400;48.506;11.692;2022-11-24T07:17:56;9.60;;;3.00;;
6725;SDS011;3400;48.506;11.692;2022-11-24T07:20:22;7.17;;;2.13;;
6725;SDS011;3400;48.506;11.692;2022-11-24T07:22:53;5.73;;;2.50;;
6725;SDS011;3400;48.506;11.692;2022-11-24T07:25:20;12.17;;;2.50;;
6725;SDS011;3400;48.506;11.692;2022-11-24T07:27:47;7.97;;;2.50;;
6725;SDS011;3400;48.506;11.692;2022-11-24T07:30:14;15.07;;;2.40;;
6725;SDS011;3400;48.506;11.692;2022-11-24T07:32:41;10.13;;;2.13;;
6725;SDS011;3400;48.506;11.692;2022-11-24T07:35:07;10.30;;;2.67;;
6725;SDS011;3400;48.506;11.692;2022-11-24T07:37:34;9.27;;;2.73;;
6725;SDS011;3400;48.506;11.692;2022-11-24T07:40:00;8.70;;;2.50;;
6725;SDS011;3400;48.506;11.692;2022-11-24T07:42:27;6.90;;;2.43;;
6725;SDS011;3400;48.506;11.692;2022-11-24T07:44:54;12.50;;;2.77;;
6725;SDS011;3400;48.506;11.692;2022-11-24T07:47:21;10.77;;;2.30;;
6725;SDS011;3400;48.506;11.692;2022-11-24T07:49:47;7.37;;;2.60;;
6725;SDS011;3400;48.506;11.692;2022-11-24T07:52:14;4.57;;;1.80;;
6725;SDS011;3400;48.506;11.692;2022-11-24T07:54:40;3.00;;;2.13;;
6725;SDS011;3400;48.506;11.692;2022-11-24T07:57:07;6.97;;;1.70;;
6725;SDS011;3400;48.506;11.692;2022-11-24T07:59:34;11.00;;;2.53;;
6725;SDS011;3400;48.506;11.692;2022-11-24T08:02:00;10.50;;;2.33;;
6725;SDS011;3400;48.506;11.692;2022-11-24T08:04:27;7.13;;;2.10;;
6725;SDS011;3400;48.506;11.692;2022-11-24T08:06:53;7.63;;;2.10;;
6725;SDS011;3400;48.506;11.692;2022-11-24T08:09:20;9.67;;;2.23;;
6725;SDS011;3400;48.506;11.692;2022-11-24T08:11:47;9.83;;;2.80;;
6725;SDS011;3400;48.506;11.692;2022-11-24T08:14:13;5.67;;;1.67;;
6725;SDS011;3400;48.506;11.692;2022-11-24T08:16:40;8.77;;;2.37;;
6725;SDS011;3400;48.506;11.692;2022-11-24T08:19:07;6.33;;;1.90;;
6725;SDS011;3400;48.506;11.692;2022-11-24T08:21:35;6.87;;;1.90;;
6725;SDS011;3400;48.506;11.692;2022-11-24T08:24:02;8.67;;;2.33;;
6725;SDS011;3400;48.506;11.692;2022-11-24T08:26:29;7.93;;;1.90;;
6725;SDS011;3400;48.506;11.692;2022-11-24T08:28:56;6.47;;;2.10;;
6725;SDS011;3400;48.506;11.692;2022-11-24T08:31:24;8.43;;;2.20;;
6725;SDS011;3400;48.506;11.692;2022-11-24T08:33:53;10.17;;;2.30;;
6725;SDS011;3400;48.506;11.692;2022-11-24T08:36:20;9.93;;;2.23;;
6725;SDS011;3400;48.506;11.692;2022-11-24T08:38:46;6.40;;;1.93;;
6725;SDS011;3400;48.506;11.692;2022-11-24T08:41:15;8.70;;;2.90;;
6725;SDS011;3400;48.506;11.692;2022-11-24T08:43:42;6.83;;;2.63;;
6725;SDS011;3400;48.506;11.692;2022-11-24T08:46:10;6.67;;;1.50;;
6725;SDS011;3400;48.506;11.692;2022-11-24T08:48:37;3.17;;;1.30;;
6725;SDS011;3400;48.506;11.692;2022-11-24T08:51:05;7.83;;;2.30;;
6725;SDS011;3400;48.506;11.692;2022-11-24T08:53:31;6.73;;;2.23;;
6725;SDS011;3400;48.506;11.692;2022-11-24T08:55:58;9.67;;;2.53;;
6725;SDS011;3400;48.506;11.692;2022-11-24T08:58:25;8.93;;;2.10;;
6725;SDS011;3400;48.506;11.692;2022-11-24T09:00:53;6.83;;;1.80;;
6725;SDS011;3400;48.506;11.692;2022-11-24T09:03:19;7.13;;;2.43;;
6725;SDS011;3400;48.506;11.692;2022-11-24T09:05:46;6.77;;;1.90;;
6725;SDS011;3400;48.506;11.692;2022-11-24T09:08:13;7.47;;;1.80;;
6725;SDS011;3400;48.506;11.692;2022-11-24T09:10:39;6.93;;;2.00;;
6725;SDS011;3400;48.506;11.692;2022-11-24T09:13:06;9.80;;;2.83;;
6725;SDS011;3400;48.506;11.692;2022-11-24T09:15:34;10.83;;;2.10;;
6725;SDS011;3400;48.506;11.692;2022-11-24T09:18:00;5.07;;;1.57;;
6725;SDS011;3400;48.506;11.692;2022-11-24T09:20:27;5.03;;;1.93;;
6725;SDS011;3400;48.506;11.692;2022-11-24T09:22:54;8.20;;;2.20;;
6725;SDS011;3400;48.506;11.692;2022-11-24T09:25:21;7.03;;;2.00;;
6725;SDS011;3400;48.506;11.692;2022-11-24T09:27:51;8.20;;;1.90;;
6725;SDS011;3400;48.506;11.692;2022-11-24T09:30:19;5.93;;;2.03;;
6725;SDS011;3400;48.506;11.692;2022-11-24T09:32:45;5.13;;;1.73;;
6725;SDS011;3400;48.506;11.692;2022-11-24T09:35:12;8.70;;;1.97;;
6725;SDS011;3400;48.506;11.692;2022-11-24T09:37:39;10.20;;;2.93;;
6725;SDS011;3400;48.506;11.692;2022-11-24T09:40:09;5.37;;;1.80;;
6725;SDS011;3400;48.506;11.692;2022-11-24T09:42:47;7.67;;;2.03;;
6725;SDS011;3400;48.506;11.692;2022-11-24T09:45:32;5.80;;;1.70;;
6725;SDS011;3400;48.506;11.692;2022-11-24T09:48:14;5.73;;;1.90;;
6725;SDS011;3400;48.506;11.692;2022-11-24T09:50:45;10.27;;;2.00;;
6725;SDS011;3400;48.506;11.692;2022-11-24T09:55:49;7.40;;;1.70;;
6725;SDS011;3400;48.506;11.692;2022-11-24T10:01:35;5.57;;;2.23;;
6725;SDS011;3400;48.506;11.692;2022-11-24T10:03:55;6.00;;;2.23;;
6725;SDS011;3400;48.506;11.692;2022-11-24T10:11:35;5.60;;;2.13;;
6725;SDS011;3400;48.506;11.692;2022-11-24T10:16:44;7.20;;;2.37;;
6725;SDS011;3400;48.506;11.692;2022-11-24T10:19:57;9.03;;;2.07;;
6725;SDS011;3400;48.506;11.692;2022-11-24T10:27:10;5.57;;;1.93;;
6725;SDS011;3400;48.506;11.692;2022-11-24T10:29:39;14.40;;;2.30;;
6725;SDS011;3400;48.506;11.692;2022-11-24T10:32:11;11.47;;;2.67;;
6725;SDS011;3400;48.506;11.692;2022-11-24T10:34:40;3.20;;;1.27;;
6725;SDS011;3400;48.506;11.692;2022-11-24T10:42:27;10.33;;;2.73;;
6725;SDS011;3400;48.506;11.692;2022-11-24T10:45:00;7.43;;;1.80;;
6725;SDS011;3400;48.506;11.692;2022-11-24T10:47:27;5.97;;;1.87;;
6725;SDS011;3400;48.506;11.692;2022-11-24T10:50:02;5.07;;;1.60;;
6725;SDS011;3400;48.506;11.692;2022-11-24T10:52:30;3.50;;;1.30;;
6725;SDS011;3400;48.506;11.692;2022-11-24T10:55:00;7.00;;;1.53;;
6725;SDS011;3400;48.506;11.692;2022-11-24T10:59:54;3.53;;;1.67;;
6725;SDS011;3400;48.506;11.692;2022-11-24T11:04:53;6.07;;;1.80;;
6725;SDS011;3400;48.506;11.692;2022-11-24T11:07:22;4.80;;;1.63;;
6725;SDS011;3400;48.506;11.692;2022-11-24T11:09:49;6.70;;;2.03;;
6725;SDS011;3400;48.506;11.692;2022-11-24T11:12:20;5.17;;;1.53;;
6725;SDS011;3400;48.506;11.692;2022-11-24T11:14:48;8.03;;;1.20;;
6725;SDS011;3400;48.506;11.692;2022-11-24T11:17:34;5.60;;;1.53;;
6725;SDS011;3400;48.506;11.692;2022-11-24T11:20:05;2.27;;;0.90;;
6725;SDS011;3400;48.506;11.692;2022-11-24T11:22:36;6.60;;;2.23;;
6725;SDS011;3400;48.506;11.692;2022-11-24T11:25:13;4.77;;;1.97;;
6725;SDS011;3400;48.506;11.692;2022-11-24T11:27:42;4.43;;;1.37;;
6725;SDS011;3400;48.506;11.692;2022-11-24T11:32:49;6.27;;;1.83;;
6725;SDS011;3400;48.506;11.692;2022-11-24T11:35:16;3.83;;;1.23;;
6725;SDS011;3400;48.506;11.692;2022-11-24T11:37:43;6.00;;;1.67;;
6725;SDS011;3400;48.506;11.692;2022-11-24T11:40:13;5.20;;;1.40;;
6725;SDS011;3400;48.506;11.692;2022-11-24T11:42:44;5.20;;;1.70;;
6725;SDS011;3400;48.506;11.692;2022-11-24T11:45:17;5.10;;;1.93;;
6725;SDS011;3400;48.506;11.692;2022-11-24T11:58:11;1.77;;;1.00;;
6725;SDS011;3400;48.506;11.692;2022-11-24T12:00:48;3.47;;;1.10;;
6725;SDS011;3400;48.506;11.692;2022-11-24T12:06:09;2.67;;;1.33;;
6725;SDS011;3400;48.506;11.692;2022-11-24T12:11:13;4.17;;;1.20;;
6725;SDS011;3400;48.506;11.692;2022-11-24T12:16:41;2.33;;;1.20;;
6725;SDS011;3400;48.506;11.692;2022-11-24T12:37:39;2.83;;;1.60;;
6725;SDS011;3400;48.506;11.692;2022-11-24T12:42:42;1.67;;;1.37;;
6725;SDS011;3400;48.506;11.692;2022-11-24T12:45:12;5.00;;;1.37;;
6725;SDS011;3400;48.506;11.692;2022-11-24T12:50:26;4.27;;;1.20;;
6725;SDS011;3400;48.506;11.692;2022-11-24T12:53:01;1.80;;;1.03;;
6725;SDS011;3400;48.506;11.692;2022-11-24T12:55:29;3.83;;;1.50;;
6725;SDS011;3400;48.506;11.692;2022-11-24T12:58:02;2.00;;;1.20;;
6725;SDS011;3400;48.506;11.692;2022-11-24T13:00:33;1.87;;;1.00;;
6725;SDS011;3400;48.506;11.692;2022-11-24T13:03:12;4.07;;;1.20;;
6725;SDS011;3400;48.506;11.692;2022-11-24T13:08:14;2.30;;;0.83;;
6725;SDS011;3400;48.506;11.692;2022-11-24T13:10:41;2.97;;;0.90;;
6725;SDS011;3400;48.506;11.692;2022-11-24T13:13:08;2.33;;;0.80;;
6725;SDS011;3400;48.506;11.692;2022-11-24T13:21:03;2.40;;;1.40;;
6725;SDS011;3400;48.506;11.692;2022-11-24T13:24:00;1.77;;;0.90;;
6725;SDS011;3400;48.506;11.692;2022-11-24T13:26:28;3.17;;;1.10;;
6725;SDS011;3400;48.506;11.692;2022-11-24T13:28:59;2.33;;;1.00;;
6725;SDS011;3400;48.506;11.692;2022-11-24T13:31:29;2.13;;;1.00;;
6725;SDS011;3400;48.506;11.692;2022-11-24T13:33:56;2.77;;;1.10;;
6725;SDS011;3400;48.506;11.692;2022-11-24T13:38:51;1.10;;;1.00;;
6725;SDS011;3400;48.506;11.692;2022-11-24T13:46:54;1.23;;;0.83;;
6725;SDS011;3400;48.506;11.692;2022-11-24T13:49:21;1.20;;;1.10;;
6725;SDS011;3400;48.506;11.692;2022-11-24T13:51:47;3.13;;;1.10;;
6725;SDS011;3400;48.506;11.692;2022-11-24T13:54:20;1.47;;;1.07;;
6725;SDS011;3400;48.506;11.692;2022-11-24T13:56:48;2.07;;;1.30;;
6725;SDS011;3400;48.506;11.692;2022-11-24T13:59:22;1.17;;;1.07;;
6725;SDS011;3400;48.506;11.692;2022-11-24T14:01:56;1.47;;;1.20;;
6725;SDS011;3400;48.506;11.692;2022-11-24T14:04:24;3.00;;;1.10;;
6725;SDS011;3400;48.506;11.692;2022-11-24T14:09:22;4.87;;;1.70;;
6725;SDS011;3400;48.506;11.692;2022-11-24T14:12:04;2.47;;;1.50;;
6725;SDS011;3400;48.506;11.692;2022-11-24T14:14:32;1.67;;;1.13;;
6725;SDS011;3400;48.506;11.692;2022-11-24T14:17:32;1.83;;;1.00;;
6725;SDS011;3400;48.506;11.692;2022-11-24T14:19:53;1.63;;;1.40;;
6725;SDS011;3400;48.506;11.692;2022-11-24T14:22:21;3.00;;;1.10;;
6725;SDS011;3400;48.506;11.692;2022-11-24T14:25:00;2.07;;;1.47;;
6725;SDS011;3400;48.506;11.692;2022-11-24T14:27:30;3.63;;;1.27;;
6725;SDS011;3400;48.506;11.692;2022-11-24T14:29:58;2.73;;;1.60;;
6725;SDS011;3400;48.506;11.692;2022-11-24T14:32:26;1.97;;;1.20;;
6725;SDS011;3400;48.506;11.692;2022-11-24T14:34:52;5.93;;;1.30;;
6725;SDS011;3400;48.506;11.692;2022-11-24T14:37:20;1.63;;;1.23;;
6725;SDS011;3400;48.506;11.692;2022-11-24T14:39:46;3.33;;;1.53;;
6725;SDS011;3400;48.506;11.692;2022-11-24T14:42:23;4.63;;;1.10;;
6725;SDS011;3400;48.506;11.692;2022-11-24T14:49:51;3.83;;;1.40;;
6725;SDS011;3400;48.506;11.692;2022-11-24T14:52:18;4.83;;;1.73;;
6725;SDS011;3400;48.506;11.692;2022-11-24T14:54:50;1.87;;;1.10;;
6725;SDS011;3400;48.506;11.692;2022-11-24T14:57:36;3.30;;;1.13;;
6725;SDS011;3400;48.506;11.692;2022-11-24T15:00:14;1.77;;;1.10;;
6725;SDS011;3400;48.506;11.692;2022-11-24T15:05:13;1.87;;;1.30;;
6725;SDS011;3400;48.506;11.692;2022-11-24T15:07:41;1.90;;;1.17;;
6725;SDS011;3400;48.506;11.692;2022-11-24T15:10:28;1.87;;;1.50;;
6725;SDS011;3400;48.506;11.692;2022-11-24T15:12:57;5.80;;;2.70;;
6725;SDS011;3400;48.506;11.692;2022-11-24T15:15:31;2.50;;;1.30;;
6725;SDS011;3400;48.506;11.692;2022-11-24T15:17:59;2.07;;;1.27;;
6725;SDS011;3400;48.506;11.692;2022-11-24T15:20:32;2.50;;;1.10;;
6725;SDS011;3400;48.506;11.692;2022-11-24T15:25:38;1.70;;;0.90;;
6725;SDS011;3400;48.506;11.692;2022-11-24T15:28:06;3.03;;;1.43;;
6725;SDS011;3400;48.506;11.692;2022-11-24T15:30:33;4.57;;;1.07;;
6725;SDS011;3400;48.506;11.692;2022-11-24T15:33:00;2.67;;;1.00;;
6725;SDS011;3400;48.506;11.692;2022-11-24T15:35:30;3.00;;;1.17;;
6725;SDS011;3400;48.506;11.692;2022-11-24T15:37:57;2.27;;;1.50;;
6725;SDS011;3400;48.506;11.692;2022-11-24T15:40:24;1.97;;;1.30;;
6725;SDS011;3400;48.506;11.692;2022-11-24T15:42:52;1.40;;;1.30;;
6725;SDS011;3400;48.506;11.692;2022-11-24T15:45:19;1.87;;;1.17;;
6725;SDS011;3400;48.506;11.692;2022-11-24T15:47:46;1.87;;;1.13;;
6725;SDS011;3400;48.506;11.692;2022-11-24T15:50:13;2.53;;;1.10;;
6725;SDS011;3400;48.506;11.692;2022-11-24T15:52:40;37.93;;;23.23;;
6725;SDS011;3400;48.506;11.692;2022-11-24T15:55:11;3.00;;;1.60;;
6725;SDS011;3400;48.506;11.692;2022-11-24T15:57:41;2.27;;;1.30;;
6725;SDS011;3400;48.506;11.692;2022-11-24T16:00:11;3.77;;;1.60;;
6725;SDS011;3400;48.506;11.692;2022-11-24T16:02:38;2.33;;;1.87;;
6725;SDS011;3400;48.506;11.692;2022-11-24T16:05:05;2.30;;;1.20;;
6725;SDS011;3400;48.506;11.692;2022-11-24T16:07:32;4.73;;;1.50;;
6725;SDS011;3400;48.506;11.692;2022-11-24T16:09:58;4.13;;;1.40;;
6725;SDS011;3400;48.506;11.692;2022-11-24T16:12:25;5.13;;;1.53;;
6725;SDS011;3400;48.506;11.692;2022-11-24T16:14:52;4.83;;;1.83;;
6725;SDS011;3400;48.506;11.692;2022-11-24T16:17:18;2.90;;;1.33;;
6725;SDS011;3400;48.506;11.692;2022-11-24T16:19:45;6.90;;;1.20;;
6725;SDS011;3400;48.506;11.692;2022-11-24T16:22:12;4.77;;;1.50;;
6725;SDS011;3400;48.506;11.692;2022-11-24T16:24:38;4.30;;;1.33;;
6725;SDS011;3400;48.506;11.692;2022-11-24T16:27:05;1.93;;;1.70;;
6725;SDS011;3400;48.506;11.692;2022-11-24T16:29:32;4.47;;;2.10;;
6725;SDS011;3400;48.506;11.692;2022-11-24T16:31:58;2.37;;;1.90;;
6725;SDS011;3400;48.506;11.692;2022-11-24T16:34:25;2.97;;;1.30;;
6725;SDS011;3400;48.506;11.692;2022-11-24T16:36:52;2.67;;;1.50;;
6725;SDS011;3400;48.506;11.692;2022-11-24T16:39:18;7.87;;;5.57;;
6725;SDS011;3400;48.506;11.692;2022-11-24T16:41:45;15.90;;;10.37;;
6725;SDS011;3400;48.506;11.692;2022-11-24T16:44:12;30.37;;;18.93;;
6725;SDS011;3400;48.506;11.692;2022-11-24T16:46:38;32.90;;;20.63;;
6725;SDS011;3400;48.506;11.692;2022-11-24T16:49:07;35.83;;;24.23;;
6725;SDS011;3400;48.506;11.692;2022-11-24T16:51:34;17.57;;;13.97;;
6725;SDS011;3400;48.506;11.692;2022-11-24T16:54:01;12.37;;;9.87;;
6725;SDS011;3400;48.506;11.692;2022-11-24T16:56:28;6.40;;;5.80;;